• Join FlightAware (Why Join?)
  • Login
  • US Flag 
04:47AM EDT


 

Airport Tracker/Info


-or-


 

Live Flight TrackerFlight Track Log ✈ SKW6492 ✈ 02-Jul-2013 ✈ KDEN - KCOD

Flight Track Log - Related Links

Times and Time Zones

All times are in EDT time to prevent confusion due to time zone crossing. See the SKW6492 flight status page for this flight to view local times or setup timezone preferences in your user account.

Time Position Orientation Groundspeed Altitude Reporting Facility
EDT Latitude Longitude Course Direction KTS MPH feet Rate Location/Type
09:44PM 39.9333 -104.6833 346° North 207 238 7,100  Level Denver TRACON
09:45PM 39.9833 -104.6667 14° North 242 278 8,700 1,860 Climbing Denver TRACON
09:46PM 40.1486 -104.7662 344° North  Level FlightAware Approximate
09:46PM 40.0667 -104.6667 360° North 272 313 10,900  Level Denver TRACON
09:47PM 40.2489 -104.7963 347° North  Level FlightAware Approximate
09:47PM 40.1594 -104.6861 351° North 285 328 12,900  Level Denver Center
09:48PM 40.3491 -104.8275 346° North  Level FlightAware Approximate
09:48PM 40.2442 -104.7069 349° North 308 354 14,600  Level Denver Center
09:49PM 40.4489 -104.8607 346° North  Level FlightAware Approximate
09:49PM 40.3356 -104.7314 348° North 310 357 16,400  Level Denver Center
09:50PM 40.4236 -104.7544 349° North 322 371 17,800 1,320 Climbing Denver Center
09:51PM 40.5122 -104.7783 348° North 325 374 19,200 1,440 Climbing Denver Center
09:52PM 40.6094 -104.8039 349° North 334 384 20,800 1,140 Climbing Denver Center
09:53PM 40.6992 -104.8306 347° North 332 382 21,600 540 Climbing Denver Center
09:54PM 40.7783 -104.8789 335° Northwest 336 387 22,000 480 Climbing Denver Center
09:55PM 40.8764 -104.9764 323° Northwest 366 421 22,600 480 Climbing Denver Center
09:56PM 40.9594 -105.0622 322° Northwest 377 434 23,100 480 Climbing Denver Center
09:57PM 41.0431 -105.1472 323° Northwest 379 436 23,700 540 Climbing Denver Center
09:58PM 41.1228 -105.2314 322° Northwest 381 438 24,300 600 Climbing Denver Center
09:59PM 41.2183 -105.3306 322° Northwest 388 447 25,000 540 Climbing Denver Center
10:00PM 41.3006 -105.4197 321° Northwest 394 453 25,500 480 Climbing Denver Center
10:01PM 41.3978 -105.5192 323° Northwest 394 453 26,000 240 Climbing Denver Center
10:02PM 41.4825 -105.6097 321° Northwest 402 463 26,000  Level Denver Center
10:03PM 41.5675 -105.6986 322° Northwest 404 465 26,000  Level Denver Center
10:04PM 41.6644 -105.8006 322° Northwest 398 458 26,000  Level Denver Center
10:05PM 41.7489 -105.8897 322° Northwest 403 464 26,000  Level Denver Center
10:06PM 41.8456 -105.9933 321° Northwest 397 457 26,000  Level Denver Center
10:07PM 41.9281 -106.0806 322° Northwest 394 453 26,000  Level Denver Center
10:08PM 42.0236 -106.1836 321° Northwest 394 453 26,000  Level Denver Center
10:09PM 42.1031 -106.2703 321° Northwest 387 445 26,000  Level Denver Center
10:10PM 42.1811 -106.3558 321° Northwest 379 436 26,000  Level Denver Center
10:11PM 42.2769 -106.4594 321° Northwest 391 450 26,000  Level Denver Center
10:12PM 42.3567 -106.5458 321° Northwest 387 445 26,000  Level Denver Center
10:13PM 42.4492 -106.6481 321° Northwest 384 442 26,000  Level Denver Center
10:15PM 42.5292 -106.7356 321° Northwest 384 442 26,000  Level Denver Center
10:16PM 42.6083 -106.8231 321° Northwest 384 442 26,000  Level Denver Center
10:16PM 42.6589 -106.8836 319° Northwest 381 438 26,000  Level Salt Lake Center
10:17PM 42.7392 -106.9722 321° Northwest 384 442 26,000  Level Salt Lake Center
10:18PM 42.8328 -107.0686 323° Northwest 380 437 26,000  Level Salt Lake Center
10:19PM 42.9111 -107.1575 320° Northwest 382 440 26,000  Level Salt Lake Center
10:20PM 42.9928 -107.2486 321° Northwest 382 440 26,000  Level Salt Lake Center
10:21PM 43.0744 -107.3414 320° Northwest 382 440 26,000  Level Salt Lake Center
10:22PM 43.1722 -107.4542 320° Northwest 383 441 26,000  Level Salt Lake Center
10:23PM 43.2547 -107.5461 321° Northwest 382 440 26,000  Level Salt Lake Center
10:24PM 43.3358 -107.6394 320° Northwest 381 438 26,000  Level Salt Lake Center
10:25PM 43.4167 -107.7328 320° Northwest 380 437 26,000  Level Salt Lake Center
10:26PM 43.4983 -107.8231 321° Northwest 377 434 26,000 -360 Level Salt Lake Center
10:27PM 43.5797 -107.9192 319° Northwest 383 441 25,300 -1,380 Descending Salt Lake Center
10:28PM 43.6656 -108.0186 320° Northwest 399 459 23,200 -2,040 Descending Salt Lake Center
10:29PM 43.7483 -108.1142 320° Northwest 390 449 21,200 -1,980 Descending Salt Lake Center
10:30PM 43.8275 -108.2050 320° Northwest 374 430 19,200 -1,920 Descending Salt Lake Center
10:31PM 43.9044 -108.2961 320° Northwest 367 422 17,300 -1,980 Descending Salt Lake Center
10:33PM 43.9944 -108.4022 320° Northwest 361 415 15,200 -1,800 Descending Salt Lake Center
10:34PM 44.0669 -108.4869 320° Northwest 353 406 13,700 -1,500 Descending Salt Lake Center
10:35PM 44.1386 -108.5722 320° Northwest 346 398 12,200 -1,500 Descending Salt Lake Center
10:36PM 44.2097 -108.6558 320° Northwest 341 392 10,700 -1,080 Descending Salt Lake Center
10:37PM 44.2792 -108.7375 320° Northwest 335 386 10,000 -420 Descending Salt Lake Center
10:38PM 44.3417 -108.8039 323° Northwest 316 364 9,900 -540 Descending Salt Lake Center
10:39PM 44.4078 -108.8344 342° North 274 315 8,900 -1,080 Descending Salt Lake Center
10:40PM 44.4692 -108.8653 340° North 253 291 7,800 -840 Descending Salt Lake Center
10:41PM 44.5225 -108.9006 335° Northwest 235 270 7,200 -780 Descending Salt Lake Center
10:42PM 44.5594 -108.9572 312° West 200 230 6,300 -900 Descending Salt Lake Center
10:44PM 44.5202 -109.0238 230° Southwest  Level Estimated
10:51PM 44.5202 -109.0238 35° Northeast  Level Estimated